Time;durP1;ratioP1;P1;durP2;ratioP2;P2;SDS_P1;SDS_P2;PMS_P1;PMS_P2;Temp;Humidity;BMP_temperature;BMP_pressure;BME280_temperature;BME280_humidity;BME280_pressure;Samples;Min_cycle;Max_cycle;Signal;HPM_P1;HPM_P2
2021/09/08 00:01:39;;;;;;;19.87;12.87;;;17.80;99.90;;;;;;5055080;28;20205;-66
2021/09/08 00:04:08;;;;;;;18.17;12.80;;;17.70;99.90;;;;;;5057347;28;20181;-66
2021/09/08 00:06:36;;;;;;;20.23;14.07;;;17.70;99.90;;;;;;5050557;28;20188;-66
2021/09/08 00:09:07;;;;;;;17.20;12.97;;;17.60;99.90;;;;;;5054467;28;20208;-66
2021/09/08 00:11:37;;;;;;;20.20;13.47;;;17.50;99.90;;;;;;5056246;28;20181;-66
2021/09/08 00:14:05;;;;;;;18.43;13.50;;;17.50;99.90;;;;;;5057356;28;20427;-66
2021/09/08 00:16:34;;;;;;;19.33;13.33;;;17.50;99.90;;;;;;5049389;28;20205;-66
2021/09/08 00:19:02;;;;;;;20.30;13.77;;;17.50;99.90;;;;;;5037401;28;20181;-67
2021/09/08 00:21:31;;;;;;;21.77;15.33;;;17.50;99.90;;;;;;5051807;28;20214;-66
2021/09/08 00:23:59;;;;;;;19.87;13.93;;;17.50;99.90;;;;;;5035931;28;20206;-66
2021/09/08 00:26:28;;;;;;;22.63;13.87;;;17.50;99.90;;;;;;5052303;28;20205;-66
2021/09/08 00:28:57;;;;;;;19.03;13.90;;;17.50;99.90;;;;;;5055856;28;20389;-66
2021/09/08 00:31:26;;;;;;;20.57;13.80;;;17.50;99.90;;;;;;5057058;28;20421;-66
2021/09/08 00:33:54;;;;;;;22.07;14.17;;;17.50;99.90;;;;;;5055860;28;20272;-66
2021/09/08 00:36:23;;;;;;;18.90;13.80;;;17.40;99.90;;;;;;5052639;28;20344;-66
2021/09/08 00:38:51;;;;;;;20.20;14.53;;;17.30;99.90;;;;;;5057328;28;20180;-66
2021/09/08 00:41:19;;;;;;;18.23;14.03;;;17.30;99.90;;;;;;5036281;28;20525;-66
2021/09/08 00:43:48;;;;;;;19.77;14.33;;;17.20;99.90;;;;;;5037618;28;20181;-66
2021/09/08 00:46:18;;;;;;;19.67;14.80;;;17.10;99.90;;;;;;5053629;28;20197;-66
2021/09/08 00:48:46;;;;;;;24.37;15.03;;;17.00;99.90;;;;;;5038770;28;20328;-66
2021/09/08 00:51:14;;;;;;;24.20;15.10;;;16.90;99.90;;;;;;5054452;28;20374;-66
2021/09/08 00:53:44;;;;;;;21.17;14.23;;;16.90;99.90;;;;;;5057420;28;20185;-66
2021/09/08 00:56:14;;;;;;;19.30;14.73;;;16.80;99.90;;;;;;5054911;28;20184;-66
2021/09/08 00:58:43;;;;;;;22.30;14.57;;;16.70;99.90;;;;;;5038262;28;20188;-66
2021/09/08 01:01:11;;;;;;;22.30;15.07;;;16.70;99.90;;;;;;5050825;28;20208;-65
2021/09/08 01:03:41;;;;;;;25.13;15.30;;;16.60;99.90;;;;;;5049992;28;20197;-66
2021/09/08 01:06:10;;;;;;;19.77;14.20;;;16.60;99.90;;;;;;5057522;28;20181;-66
2021/09/08 01:08:39;;;;;;;24.13;16.03;;;16.50;99.90;;;;;;5060320;28;20428;-66
2021/09/08 01:11:08;;;;;;;22.00;15.33;;;16.50;99.90;;;;;;5056716;28;20209;-66
2021/09/08 01:13:37;;;;;;;21.20;15.30;;;16.50;99.90;;;;;;5059346;28;20197;-66
2021/09/08 01:16:06;;;;;;;23.80;16.13;;;16.50;99.90;;;;;;5043924;28;20180;-66
2021/09/08 01:18:36;;;;;;;21.93;15.80;;;16.50;99.90;;;;;;5059372;28;20323;-66
2021/09/08 01:21:06;;;;;;;20.23;14.90;;;16.50;99.90;;;;;;5055995;28;20218;-66
2021/09/08 01:23:36;;;;;;;21.97;15.33;;;16.40;99.90;;;;;;5058215;28;20189;-65
2021/09/08 01:26:05;;;;;;;21.87;14.70;;;16.30;99.90;;;;;;5030996;28;20218;-66
2021/09/08 01:28:33;;;;;;;27.13;16.17;;;16.30;99.90;;;;;;5013462;28;20186;-66
2021/09/08 01:31:03;;;;;;;23.03;15.23;;;16.20;99.90;;;;;;5015177;28;20756;-66
2021/09/08 01:33:31;;;;;;;22.60;15.93;;;16.20;99.90;;;;;;5016745;28;20456;-66
2021/09/08 01:36:00;;;;;;;22.87;15.97;;;16.10;99.90;;;;;;5021926;28;20252;-66
2021/09/08 01:38:28;;;;;;;23.40;16.30;;;16.10;99.90;;;;;;5021551;28;20174;-66
2021/09/08 01:40:58;;;;;;;26.53;16.57;;;16.10;99.90;;;;;;4998194;28;20183;-65
2021/09/08 01:43:27;;;;;;;26.57;17.60;;;16.10;99.90;;;;;;5020711;28;20293;-66
2021/09/08 01:45:56;;;;;;;24.10;16.33;;;16.00;99.90;;;;;;5016419;28;20214;-66
2021/09/08 01:48:24;;;;;;;21.53;15.90;;;16.00;99.90;;;;;;5013555;28;20197;-65
2021/09/08 01:50:53;;;;;;;24.00;15.97;;;16.00;99.90;;;;;;5020944;28;20501;-66
2021/09/08 01:53:22;;;;;;;23.23;15.53;;;16.10;99.90;;;;;;5015208;28;20183;-66
2021/09/08 01:55:51;;;;;;;24.47;16.00;;;16.00;99.90;;;;;;5020366;28;20209;-66
2021/09/08 01:58:20;;;;;;;22.77;15.73;;;16.00;99.90;;;;;;5017448;28;20182;-66
2021/09/08 02:00:49;;;;;;;23.90;15.50;;;16.00;99.90;;;;;;5019075;28;20189;-65
2021/09/08 02:03:17;;;;;;;20.70;15.03;;;16.00;99.90;;;;;;5021097;28;20210;-65
2021/09/08 02:05:46;;;;;;;22.63;14.60;;;15.90;99.90;;;;;;5019005;28;20198;-65
2021/09/08 02:08:15;;;;;;;22.93;15.73;;;15.80;99.90;;;;;;5015783;28;20346;-66
2021/09/08 02:10:43;;;;;;;22.30;15.73;;;15.80;99.90;;;;;;5014031;28;20461;-66
2021/09/08 02:13:12;;;;;;;24.63;16.10;;;15.80;99.90;;;;;;5019909;28;20209;-65
2021/09/08 02:15:45;;;;;;;22.73;15.77;;;15.80;99.90;;;;;;5015376;28;20411;-66
2021/09/08 02:18:13;;;;;;;22.50;15.53;;;15.70;99.90;;;;;;5027847;28;20205;-65
2021/09/08 02:20:41;;;;;;;20.20;15.17;;;15.70;99.90;;;;;;5022660;28;20220;-66
2021/09/08 02:23:10;;;;;;;20.37;14.37;;;15.70;99.90;;;;;;5019733;28;20214;-66
2021/09/08 02:25:38;;;;;;;21.60;14.77;;;15.60;99.90;;;;;;5039975;28;20518;-66
2021/09/08 02:28:07;;;;;;;24.23;15.33;;;15.60;99.90;;;;;;5054519;28;20183;-66
2021/09/08 02:30:37;;;;;;;23.33;16.60;;;15.50;99.90;;;;;;5059104;28;20190;-66
2021/09/08 02:33:07;;;;;;;23.77;15.63;;;15.50;99.90;;;;;;5040894;28;20400;-66
2021/09/08 02:35:36;;;;;;;24.57;16.03;;;15.50;99.90;;;;;;5038278;28;20188;-65
2021/09/08 02:38:04;;;;;;;27.67;17.20;;;15.50;99.90;;;;;;5056849;28;20192;-66
2021/09/08 02:40:32;;;;;;;22.63;16.50;;;15.50;99.90;;;;;;5058318;28;20180;-66
2021/09/08 02:43:01;;;;;;;24.10;16.90;;;15.50;99.90;;;;;;5037177;28;20209;-66
2021/09/08 02:45:29;;;;;;;24.53;16.83;;;15.50;99.90;;;;;;5054885;28;20296;-65
2021/09/08 02:48:00;;;;;;;24.70;16.67;;;15.50;99.90;;;;;;5033649;28;20220;-66
2021/09/08 02:50:29;;;;;;;26.93;16.47;;;15.50;99.90;;;;;;5056033;28;20196;-66
2021/09/08 02:52:58;;;;;;;24.60;16.73;;;15.40;99.90;;;;;;5057452;28;20205;-66
2021/09/08 02:55:26;;;;;;;24.30;16.77;;;15.40;99.90;;;;;;5056575;28;20422;-66
2021/09/08 02:57:55;;;;;;;21.57;14.97;;;15.30;99.90;;;;;;5061274;28;20204;-66
2021/09/08 03:00:23;;;;;;;21.67;15.53;;;15.30;99.90;;;;;;5055985;28;20177;-66
2021/09/08 03:02:52;;;;;;;22.77;16.27;;;15.30;99.90;;;;;;5057694;28;20256;-66
2021/09/08 03:05:20;;;;;;;24.50;16.83;;;15.30;99.90;;;;;;5053600;28;20208;-65
2021/09/08 03:07:50;;;;;;;25.27;16.63;;;15.20;99.90;;;;;;5039634;28;20188;-65
2021/09/08 03:10:21;;;;;;;25.97;16.73;;;15.30;99.90;;;;;;5039457;28;20212;-66
2021/09/08 03:12:49;;;;;;;24.10;16.80;;;15.20;99.90;;;;;;5056758;28;20186;-65
2021/09/08 03:15:21;;;;;;;24.87;16.93;;;15.20;99.90;;;;;;5038591;28;20279;-65
2021/09/08 03:17:50;;;;;;;25.07;17.77;;;15.20;99.90;;;;;;5058435;28;20184;-66
2021/09/08 03:20:18;;;;;;;24.70;16.87;;;15.10;99.90;;;;;;5040774;28;20196;-66
2021/09/08 03:22:47;;;;;;;23.87;16.80;;;15.10;99.90;;;;;;5058638;28;20215;-66
2021/09/08 03:25:17;;;;;;;20.87;15.13;;;15.00;99.90;;;;;;5056015;28;20204;-65
2021/09/08 03:27:45;;;;;;;21.67;15.90;;;15.00;99.90;;;;;;5058376;28;20415;-66
2021/09/08 03:30:14;;;;;;;24.83;16.23;;;14.90;99.90;;;;;;5055434;28;20185;-66
2021/09/08 03:32:42;;;;;;;24.93;16.27;;;14.90;99.90;;;;;;5057744;28;20302;-66
2021/09/08 03:35:12;;;;;;;24.50;16.40;;;14.90;99.90;;;;;;5059249;28;20184;-66
2021/09/08 03:37:42;;;;;;;26.97;16.67;;;14.90;99.90;;;;;;5060204;28;20289;-66
2021/09/08 03:40:11;;;;;;;25.37;17.60;;;14.90;99.90;;;;;;5057873;28;20359;-65
2021/09/08 03:42:42;;;;;;;27.60;18.73;;;14.90;99.90;;;;;;5054323;28;20402;-66
2021/09/08 03:45:11;;;;;;;34.37;19.37;;;14.90;99.90;;;;;;5033498;28;20189;-66
2021/09/08 03:47:40;;;;;;;28.93;18.83;;;14.90;99.90;;;;;;5057611;28;20184;-66
2021/09/08 03:50:09;;;;;;;30.83;18.50;;;14.90;99.90;;;;;;5058879;28;20208;-65
2021/09/08 03:52:37;;;;;;;31.63;19.30;;;14.80;99.90;;;;;;5057755;28;20180;-66
2021/09/08 03:55:07;;;;;;;36.43;20.17;;;14.80;99.90;;;;;;5058517;28;20180;-66
2021/09/08 03:57:37;;;;;;;41.37;22.43;;;14.80;99.90;;;;;;5055470;28;20247;-65
2021/09/08 04:00:08;;;;;;;36.03;21.73;;;14.80;99.90;;;;;;5055842;28;20189;-66
2021/09/08 04:02:37;;;;;;;33.60;21.33;;;14.80;99.90;;;;;;5051605;28;20224;-65
2021/09/08 04:05:07;;;;;;;40.67;23.03;;;14.70;99.90;;;;;;5040235;28;20200;-65
2021/09/08 04:07:36;;;;;;;37.53;21.47;;;14.80;99.90;;;;;;5039855;28;20192;-66
2021/09/08 04:10:05;;;;;;;32.40;21.97;;;14.80;99.90;;;;;;5057270;28;20512;-66
2021/09/08 04:12:42;;;;;;;35.80;22.00;;;14.80;99.90;;;;;;5022481;28;20493;-66
2021/09/08 04:15:12;;;;;;;37.27;23.03;;;14.80;99.90;;;;;;5038774;28;20307;-66
2021/09/08 04:17:41;;;;;;;34.57;21.83;;;14.80;99.90;;;;;;5056709;28;20192;-66
2021/09/08 04:20:10;;;;;;;34.27;21.43;;;14.80;99.90;;;;;;5035738;28;20180;-66
2021/09/08 04:22:38;;;;;;;36.07;21.47;;;14.80;99.90;;;;;;5051342;28;20223;-66
2021/09/08 04:25:07;;;;;;;35.20;20.83;;;14.80;99.90;;;;;;5057331;28;20240;-65
2021/09/08 04:27:36;;;;;;;37.53;22.80;;;14.80;99.90;;;;;;5054564;28;20224;-66
2021/09/08 04:30:06;;;;;;;34.23;21.67;;;14.70;99.90;;;;;;5039618;28;20264;-65
2021/09/08 04:32:36;;;;;;;33.30;20.87;;;14.70;99.90;;;;;;5036337;28;20172;-65
2021/09/08 04:35:05;;;;;;;41.43;25.57;;;14.70;99.90;;;;;;5057569;28;20181;-66
2021/09/08 04:37:33;;;;;;;37.83;23.37;;;14.70;99.90;;;;;;5054880;28;20256;-65
2021/09/08 04:40:02;;;;;;;39.50;23.33;;;14.70;99.90;;;;;;5057308;28;20339;-66
2021/09/08 04:42:30;;;;;;;39.03;23.83;;;14.70;99.90;;;;;;5042338;28;20252;-66
2021/09/08 04:44:58;;;;;;;37.67;22.67;;;14.70;99.90;;;;;;5045595;28;20189;-66
2021/09/08 04:47:26;;;;;;;40.67;24.20;;;14.70;99.90;;;;;;5059175;28;20180;-65
2021/09/08 04:49:56;;;;;;;40.20;24.77;;;14.70;99.90;;;;;;5062287;28;20173;-66
2021/09/08 04:52:25;;;;;;;38.00;23.73;;;14.70;99.90;;;;;;5058890;28;20235;-65
2021/09/08 04:54:53;;;;;;;35.87;22.57;;;14.70;99.90;;;;;;5060979;28;20428;-66
2021/09/08 04:57:21;;;;;;;44.73;25.17;;;14.70;99.90;;;;;;5061449;28;20193;-66
2021/09/08 04:59:50;;;;;;;40.33;24.70;;;14.70;99.90;;;;;;5056216;28;20397;-66
2021/09/08 05:02:22;;;;;;;41.07;24.70;;;14.70;99.90;;;;;;5060732;28;20181;-65
2021/09/08 05:04:50;;;;;;;42.87;24.47;;;14.70;99.90;;;;;;5057399;28;20470;-66
2021/09/08 05:07:20;;;;;;;45.50;24.13;;;14.70;99.90;;;;;;5060689;28;20183;-66
2021/09/08 05:09:48;;;;;;;40.77;24.87;;;14.70;99.90;;;;;;5062929;28;20439;-66
2021/09/08 05:12:18;;;;;;;38.90;23.37;;;14.60;99.90;;;;;;5057922;28;20208;-65
2021/09/08 05:14:46;;;;;;;38.83;23.83;;;14.60;99.90;;;;;;5045132;28;20423;-65
2021/09/08 05:17:14;;;;;;;40.93;23.73;;;14.60;99.90;;;;;;5059890;28;20424;-66
2021/09/08 05:19:42;;;;;;;40.87;24.37;;;14.60;99.90;;;;;;5061119;28;20197;-66
2021/09/08 05:22:11;;;;;;;39.63;22.43;;;14.60;99.90;;;;;;5057360;28;20443;-66
2021/09/08 05:24:41;;;;;;;41.30;23.47;;;14.60;99.90;;;;;;5058892;28;20506;-66
2021/09/08 05:27:09;;;;;;;39.37;24.40;;;14.60;99.90;;;;;;5061751;28;20235;-65
2021/09/08 05:29:37;;;;;;;41.07;24.37;;;14.60;99.90;;;;;;5052275;28;20204;-65
2021/09/08 05:32:06;;;;;;;45.87;25.43;;;14.60;99.90;;;;;;5060209;28;20188;-65
2021/09/08 05:34:35;;;;;;;45.63;25.97;;;14.70;99.90;;;;;;5059015;28;20231;-65
2021/09/08 05:37:03;;;;;;;42.00;24.33;;;14.70;99.90;;;;;;5064093;28;20188;-65
2021/09/08 05:39:32;;;;;;;41.77;24.67;;;14.70;99.90;;;;;;5054753;28;20196;-66
2021/09/08 05:42:01;;;;;;;48.43;26.40;;;14.70;99.90;;;;;;5056855;28;20201;-66
2021/09/08 05:44:30;;;;;;;49.90;25.33;;;14.70;99.90;;;;;;5054154;28;20221;-66
2021/09/08 05:46:58;;;;;;;49.37;25.47;;;14.70;99.90;;;;;;5061985;28;21791;-65
2021/09/08 05:49:26;;;;;;;52.60;25.40;;;14.70;99.90;;;;;;5041948;28;20193;-65
2021/09/08 05:51:55;;;;;;;52.43;27.10;;;14.80;99.90;;;;;;5057217;28;20197;-65
2021/09/08 05:54:23;;;;;;;51.50;27.60;;;14.80;99.90;;;;;;5058535;28;20196;-66
2021/09/08 05:56:51;;;;;;;45.63;25.77;;;14.90;99.90;;;;;;5059431;28;20205;-65
2021/09/08 05:59:21;;;;;;;45.43;25.20;;;14.90;99.90;;;;;;5057828;28;20177;-65
2021/09/08 06:01:49;;;;;;;44.47;24.90;;;15.00;99.90;;;;;;5041135;28;20238;-66
2021/09/08 06:04:18;;;;;;;56.93;26.27;;;15.00;99.90;;;;;;5058748;28;20212;-66
2021/09/08 06:06:46;;;;;;;45.97;24.83;;;15.10;99.90;;;;;;5057665;28;20192;-66
2021/09/08 06:09:15;;;;;;;55.83;26.63;;;15.10;99.90;;;;;;5057408;28;20185;-65
2021/09/08 06:11:43;;;;;;;56.23;26.43;;;15.10;99.90;;;;;;5063675;28;20234;-65
2021/09/08 06:14:13;;;;;;;50.70;26.43;;;15.20;99.90;;;;;;5052146;28;20201;-66
2021/09/08 06:16:43;;;;;;;48.17;25.17;;;15.20;99.90;;;;;;5043936;28;20176;-65
2021/09/08 06:19:11;;;;;;;58.13;27.67;;;15.30;99.90;;;;;;5057820;28;20184;-66
2021/09/08 06:21:41;;;;;;;50.33;26.47;;;15.30;99.90;;;;;;5063582;28;20352;-66
2021/09/08 06:24:10;;;;;;;47.63;25.67;;;15.40;99.90;;;;;;5060601;28;20467;-66
2021/09/08 06:26:38;;;;;;;50.30;26.37;;;15.50;99.90;;;;;;5062164;28;20296;-66
2021/09/08 06:29:07;;;;;;;51.27;26.43;;;15.60;99.90;;;;;;5063211;28;20195;-65
2021/09/08 06:31:35;;;;;;;46.77;26.60;;;15.80;99.90;;;;;;5044575;28;20181;-65
2021/09/08 06:34:08;;;;;;;43.80;25.40;;;15.90;99.90;;;;;;5057778;28;20250;-66
2021/09/08 06:36:37;;;;;;;44.10;24.87;;;16.10;99.90;;;;;;5055394;28;20185;-65
2021/09/08 06:39:06;;;;;;;42.80;24.43;;;16.20;99.90;;;;;;5050676;28;20197;-65
2021/09/08 06:41:34;;;;;;;43.80;23.83;;;16.40;99.90;;;;;;5036360;28;20188;-66
2021/09/08 06:44:03;;;;;;;40.13;23.10;;;16.50;99.90;;;;;;5057166;28;20494;-65
2021/09/08 06:46:31;;;;;;;43.87;25.07;;;16.70;99.90;;;;;;5058239;28;20188;-65
2021/09/08 06:48:59;;;;;;;37.17;22.40;;;16.80;99.90;;;;;;5059260;28;20187;-65
2021/09/08 06:51:29;;;;;;;39.83;23.10;;;17.00;99.90;;;;;;5049858;28;20215;-66
2021/09/08 06:53:58;;;;;;;33.43;22.43;;;17.10;99.90;;;;;;5058087;28;20181;-66
2021/09/08 06:56:26;;;;;;;35.40;22.37;;;17.20;99.90;;;;;;5042623;28;20185;-66
2021/09/08 06:58:54;;;;;;;38.53;21.87;;;17.30;99.90;;;;;;5058417;28;20181;-65
2021/09/08 07:01:23;;;;;;;38.43;22.07;;;17.40;99.90;;;;;;5060929;28;20192;-66
2021/09/08 07:03:51;;;;;;;30.80;21.13;;;17.50;99.90;;;;;;5056890;28;20420;-65
2021/09/08 07:06:22;;;;;;;38.53;21.23;;;17.70;99.90;;;;;;5058400;28;20256;-66
2021/09/08 07:08:53;;;;;;;31.27;20.63;;;17.80;99.90;;;;;;5039781;28;20169;-66
2021/09/08 07:11:22;;;;;;;36.07;21.33;;;17.90;99.90;;;;;;5058340;28;20244;-65
2021/09/08 07:13:50;;;;;;;29.43;19.93;;;18.10;99.90;;;;;;5059529;28;20351;-66
2021/09/08 07:16:19;;;;;;;28.13;19.33;;;18.20;99.90;;;;;;5059583;28;20186;-66
2021/09/08 07:18:47;;;;;;;30.67;19.97;;;18.40;99.90;;;;;;5055838;28;20213;-65
2021/09/08 07:21:16;;;;;;;35.33;19.57;;;18.50;99.90;;;;;;5020376;28;20207;-66
2021/09/08 07:23:44;;;;;;;33.07;19.27;;;18.70;99.90;;;;;;5053938;28;20196;-66
2021/09/08 07:26:14;;;;;;;34.90;18.47;;;18.80;99.90;;;;;;5058219;28;20224;-66
2021/09/08 07:28:42;;;;;;;25.33;17.60;;;19.00;99.90;;;;;;5059421;28;20420;-66
2021/09/08 07:31:10;;;;;;;30.30;17.07;;;19.20;99.90;;;;;;5053997;28;20444;-66
2021/09/08 07:33:41;;;;;;;27.43;17.53;;;19.50;99.90;;;;;;5024096;28;20208;-66
2021/09/08 07:36:09;;;;;;;27.00;17.33;;;19.60;99.90;;;;;;5057352;28;20188;-66
2021/09/08 07:38:42;;;;;;;24.90;15.67;;;19.80;99.90;;;;;;5060977;28;20191;-66
2021/09/08 07:41:10;;;;;;;30.10;17.50;;;20.00;99.90;;;;;;5039862;28;20192;-66
2021/09/08 07:43:41;;;;;;;26.17;16.03;;;20.30;99.90;;;;;;5057210;28;20184;-65
2021/09/08 07:46:11;;;;;;;27.50;16.23;;;20.50;99.90;;;;;;5058123;28;20232;-66
2021/09/08 07:48:39;;;;;;;24.97;15.90;;;20.70;99.90;;;;;;5055761;28;20352;-66
2021/09/08 07:51:08;;;;;;;24.83;15.87;;;20.70;99.90;;;;;;5057733;28;20197;-66
2021/09/08 07:53:37;;;;;;;27.07;16.10;;;20.70;99.90;;;;;;5037957;28;20185;-66
2021/09/08 07:56:05;;;;;;;23.63;15.47;;;20.90;99.90;;;;;;5059975;28;20212;-66
2021/09/08 07:58:34;;;;;;;23.93;15.00;;;21.10;99.90;;;;;;5040182;28;20184;-65
2021/09/08 08:01:03;;;;;;;23.13;15.10;;;21.20;99.90;;;;;;5058395;28;20272;-65
2021/09/08 08:03:32;;;;;;;20.00;14.23;;;21.20;99.90;;;;;;5059361;28;20188;-66
2021/09/08 08:06:01;;;;;;;26.27;15.67;;;21.30;99.90;;;;;;5053274;28;20248;-66
2021/09/08 08:08:29;;;;;;;22.93;15.17;;;21.40;99.90;;;;;;5060522;28;20188;-66
2021/09/08 08:10:57;;;;;;;24.70;14.93;;;21.50;99.90;;;;;;5059173;28;20208;-65
2021/09/08 08:13:26;;;;;;;20.87;14.70;;;21.60;99.90;;;;;;5060618;28;20184;-66
2021/09/08 08:15:55;;;;;;;19.93;14.30;;;21.80;99.90;;;;;;5059392;28;20184;-66
2021/09/08 08:18:25;;;;;;;21.30;14.40;;;21.80;99.90;;;;;;5058011;28;20196;-66
2021/09/08 08:20:53;;;;;;;19.93;13.73;;;22.00;99.90;;;;;;5059409;28;20189;-66
2021/09/08 08:23:21;;;;;;;22.63;13.50;;;22.10;99.90;;;;;;5057998;28;20192;-66
2021/09/08 08:25:50;;;;;;;20.53;13.63;;;22.20;99.90;;;;;;5052220;28;20285;-66
2021/09/08 08:28:18;;;;;;;19.87;14.17;;;22.40;99.90;;;;;;5042110;28;20177;-66
2021/09/08 08:30:46;;;;;;;22.23;12.97;;;22.60;99.90;;;;;;5056031;28;20240;-67
2021/09/08 08:33:14;;;;;;;19.60;13.30;;;22.70;99.90;;;;;;5057234;28;20398;-66
2021/09/08 08:35:44;;;;;;;20.70;13.87;;;22.80;99.90;;;;;;5058897;28;20181;-66
2021/09/08 08:38:13;;;;;;;23.30;13.50;;;23.10;99.90;;;;;;5037936;28;20188;-66
2021/09/08 08:40:41;;;;;;;21.90;12.43;;;23.10;99.90;;;;;;5058101;28;20188;-66
2021/09/08 08:43:10;;;;;;;21.77;13.00;;;23.10;99.90;;;;;;5057246;28;20234;-66
2021/09/08 08:45:39;;;;;;;19.03;12.07;;;23.20;99.90;;;;;;5052829;28;20217;-66
2021/09/08 08:48:08;;;;;;;20.63;11.63;;;23.40;99.90;;;;;;5058514;28;20243;-66
2021/09/08 08:50:36;;;;;;;18.83;11.10;;;23.60;99.90;;;;;;5058819;28;20177;-66
2021/09/08 08:53:06;;;;;;;16.93;10.27;;;23.80;99.90;;;;;;5038686;28;20205;-66
2021/09/08 08:55:36;;;;;;;11.80;9.23;;;23.90;99.90;;;;;;5055204;28;20200;-66
2021/09/08 08:58:04;;;;;;;14.23;9.43;;;24.30;99.90;;;;;;5057264;28;20196;-66
2021/09/08 09:00:32;;;;;;;16.17;9.60;;;24.50;99.90;;;;;;5055046;28;20214;-66
2021/09/08 09:03:01;;;;;;;14.60;9.60;;;24.70;99.90;;;;;;5054330;28;20237;-66
2021/09/08 09:05:36;;;;;;;13.90;9.30;;;24.90;99.90;;;;;;5058966;28;20211;-66
2021/09/08 09:08:08;;;;;;;12.93;9.67;;;25.00;99.90;;;;;;5053322;28;20331;-65
2021/09/08 09:10:38;;;;;;;11.60;8.80;;;25.30;99.90;;;;;;5057022;28;20193;-66
2021/09/08 09:13:09;;;;;;;12.67;9.17;;;25.40;99.90;;;;;;5042899;28;20265;-66
2021/09/08 09:15:38;;;;;;;13.80;8.63;;;25.50;99.90;;;;;;5059696;28;20197;-66
2021/09/08 09:18:07;;;;;;;17.43;8.50;;;25.60;99.90;;;;;;5061735;28;20178;-66
2021/09/08 09:20:39;;;;;;;12.07;7.83;;;25.60;99.90;;;;;;5059902;28;20189;-65
2021/09/08 09:23:09;;;;;;;10.97;8.13;;;25.60;99.90;;;;;;5037783;28;20451;-66
2021/09/08 09:25:38;;;;;;;9.17;7.90;;;25.70;99.90;;;;;;5043990;28;20241;-66
2021/09/08 09:28:08;;;;;;;11.63;7.43;;;25.70;99.90;;;;;;5044447;28;20189;-66
2021/09/08 09:30:39;;;;;;;13.57;8.63;;;25.90;99.90;;;;;;5044203;28;20198;-65
2021/09/08 09:33:28;;;;;;;11.03;7.70;;;26.00;99.90;;;;;;5043078;28;20256;-66
2021/09/08 09:35:58;;;;;;;11.13;8.33;;;26.10;99.90;;;;;;5043853;28;20175;-66
2021/09/08 09:38:28;;;;;;;9.70;8.03;;;26.10;99.90;;;;;;5058161;28;20178;-66
2021/09/08 09:40:57;;;;;;;13.23;7.70;;;26.20;99.90;;;;;;5059618;28;20370;-66
2021/09/08 09:43:31;;;;;;;10.60;8.00;;;26.30;99.90;;;;;;5062119;28;20192;-66
2021/09/08 09:46:07;;;;;;;11.47;7.33;;;26.40;99.90;;;;;;5053214;28;20208;-66
2021/09/08 09:48:37;;;;;;;12.33;7.83;;;26.50;99.90;;;;;;5059637;28;20183;-67
2021/09/08 09:51:06;;;;;;;7.93;6.93;;;26.60;99.90;;;;;;5061810;28;20229;-66
2021/09/08 09:53:36;;;;;;;10.97;8.10;;;26.70;99.90;;;;;;5039567;28;20199;-66
2021/09/08 09:56:05;;;;;;;8.40;7.50;;;26.70;99.90;;;;;;5065392;28;20428;-66
2021/09/08 09:58:35;;;;;;;9.70;7.80;;;26.80;99.90;;;;;;5062746;28;20212;-65
2021/09/08 10:01:05;;;;;;;7.83;7.07;;;26.80;99.90;;;;;;5058923;28;20230;-66
2021/09/08 10:03:34;;;;;;;10.27;6.77;;;26.90;99.90;;;;;;5063438;28;20180;-66
2021/09/08 10:06:03;;;;;;;8.43;7.40;;;27.10;99.90;;;;;;5063528;28;20205;-65
2021/09/08 10:08:40;;;;;;;8.53;6.93;;;27.40;99.90;;;;;;5045486;28;20204;-66
2021/09/08 10:11:11;;;;;;;10.77;7.03;;;27.50;99.90;;;;;;5060843;28;20317;-66
2021/09/08 10:13:43;;;;;;;13.60;7.17;;;27.50;99.90;;;;;;5063078;28;20185;-66
2021/09/08 10:16:12;;;;;;;11.13;6.93;;;27.40;99.90;;;;;;5045381;28;20180;-66
2021/09/08 10:18:42;;;;;;;8.23;6.63;;;27.50;99.90;;;;;;5063288;28;20181;-66
2021/09/08 10:21:14;;;;;;;14.73;7.03;;;27.60;99.90;;;;;;5056089;28;20173;-66
2021/09/08 10:23:53;;;;;;;7.63;6.83;;;27.70;99.90;;;;;;5062926;28;20189;-66
2021/09/08 10:26:28;;;;;;;6.53;5.93;;;27.80;99.90;;;;;;5064207;28;20237;-66
2021/09/08 10:29:05;;;;;;;7.00;6.30;;;28.10;99.90;;;;;;5047920;28;20202;-66
2021/09/08 10:31:35;;;;;;;7.37;6.67;;;28.20;99.90;;;;;;5056749;28;20181;-65
2021/09/08 10:34:06;;;;;;;7.47;6.77;;;28.20;99.90;;;;;;5058565;28;20180;-66
2021/09/08 10:36:35;;;;;;;8.37;7.10;;;28.20;99.90;;;;;;5060807;28;20201;-66
2021/09/08 10:39:08;;;;;;;7.60;6.90;;;28.20;99.90;;;;;;5043547;28;20331;-66
2021/09/08 10:41:42;;;;;;;7.63;6.50;;;28.30;99.90;;;;;;5057648;28;20193;-66
2021/09/08 10:44:12;;;;;;;7.27;6.60;;;28.40;99.90;;;;;;5057677;28;20206;-66
2021/09/08 10:46:57;;;;;;;9.33;6.57;;;28.60;99.90;;;;;;5061918;28;20477;-65
2021/09/08 10:49:48;;;;;;;7.27;6.50;;;28.60;99.90;;;;;;5058928;28;20307;-66
2021/09/08 10:52:43;;;;;;;7.47;6.33;;;28.80;99.90;;;;;;5058358;28;20193;-66
2021/09/08 10:55:17;;;;;;;7.47;6.77;;;28.80;99.90;;;;;;5056501;28;20231;-66
2021/09/08 10:57:56;;;;;;;7.93;6.77;;;28.80;99.90;;;;;;5058191;28;20344;-66
2021/09/08 11:00:28;;;;;;;7.17;6.30;;;28.70;99.90;;;;;;5045655;28;20327;-65
2021/09/08 11:02:57;;;;;;;7.13;6.10;;;28.80;99.90;;;;;;5057771;28;20177;-66
2021/09/08 11:05:26;;;;;;;8.05;6.57;;;28.70;99.90;;;;;;5059252;28;20204;-66
2021/09/08 11:07:54;;;;;;;10.27;6.77;;;28.70;99.90;;;;;;5056544;28;20225;-65
2021/09/08 11:10:30;;;;;;;7.50;6.57;;;28.70;99.90;;;;;;5058117;28;20181;-66
2021/09/08 11:13:01;;;;;;;7.63;6.10;;;28.70;99.90;;;;;;5058290;28;20193;-66
2021/09/08 11:15:37;;;;;;;7.20;6.50;;;28.80;99.90;;;;;;5058047;28;20181;-66
2021/09/08 11:18:10;;;;;;;7.37;6.63;;;28.90;99.90;;;;;;5057708;28;20227;-65
2021/09/08 11:20:42;;;;;;;7.63;6.70;;;28.90;99.90;;;;;;5039514;28;20197;-65
2021/09/08 11:23:13;;;;;;;7.20;6.50;;;29.00;99.90;;;;;;5052169;28;20184;-65
2021/09/08 11:25:45;;;;;;;7.07;6.25;;;29.00;99.90;;;;;;5058476;28;20289;-66
2021/09/08 11:28:14;;;;;;;6.40;5.65;;;29.20;99.90;;;;;;5062222;28;20383;-66
2021/09/08 11:30:45;;;;;;;6.75;6.15;;;29.10;99.90;;;;;;5060709;28;20273;-65
2021/09/08 11:33:14;;;;;;;9.00;6.30;;;29.20;99.90;;;;;;5040046;28;20228;-65
2021/09/08 11:35:44;;;;;;;6.85;6.15;;;29.50;99.90;;;;;;5042201;28;20334;-66
2021/09/08 11:38:17;;;;;;;6.78;6.18;;;29.60;99.90;;;;;;5058223;28;20483;-66
2021/09/08 11:40:49;;;;;;;8.27;6.45;;;29.70;99.90;;;;;;5063553;28;20189;-66
2021/09/08 11:43:31;;;;;;;8.13;6.85;;;29.80;99.90;;;;;;5061156;28;20185;-66
2021/09/08 11:46:10;;;;;;;9.90;6.45;;;30.10;99.90;;;;;;5040709;28;20207;-65
2021/09/08 11:48:41;;;;;;;8.20;6.40;;;30.10;99.90;;;;;;5055001;28;20188;-65
2021/09/08 11:51:12;;;;;;;7.05;6.25;;;30.00;99.90;;;;;;5051592;28;20236;-65
2021/09/08 11:53:40;;;;;;;6.88;6.22;;;30.20;99.90;;;;;;5054589;28;20178;-66
2021/09/08 11:56:15;;;;;;;7.03;6.30;;;30.30;99.90;;;;;;5051891;28;20463;-66
2021/09/08 11:58:49;;;;;;;7.20;6.47;;;30.40;99.90;;;;;;5058011;28;20195;-66
2021/09/08 12:01:18;;;;;;;8.70;6.68;;;30.40;99.90;;;;;;5067375;28;20414;-66
2021/09/08 12:03:53;;;;;;;8.70;6.50;;;30.10;99.90;;;;;;5054524;28;20193;-66
2021/09/08 12:06:23;;;;;;;8.98;6.45;;;30.20;99.90;;;;;;5059747;28;20467;-65
2021/09/08 12:08:57;;;;;;;9.52;6.70;;;30.60;99.90;;;;;;5053867;28;20190;-65
2021/09/08 12:11:41;;;;;;;8.23;6.75;;;30.40;99.90;;;;;;5063106;28;20329;-65
2021/09/08 12:14:24;;;;;;;7.63;6.60;;;30.00;99.90;;;;;;5056265;28;20186;-66
2021/09/08 12:16:54;;;;;;;6.72;6.13;;;29.90;99.90;;;;;;5056855;28;20262;-64
2021/09/08 12:19:31;;;;;;;7.10;6.40;;;30.00;99.90;;;;;;5054433;28;20190;-66
2021/09/08 12:22:10;;;;;;;6.60;5.78;;;30.30;99.90;;;;;;5058453;28;20190;-66
2021/09/08 12:24:41;;;;;;;7.63;6.45;;;30.20;99.90;;;;;;5059312;28;20185;-65
2021/09/08 12:27:32;;;;;;;8.18;6.60;;;30.00;99.90;;;;;;5046437;28;20485;-66
2021/09/08 12:30:02;;;;;;;7.65;6.28;;;30.00;99.90;;;;;;5056737;28;20189;-66
2021/09/08 12:32:47;;;;;;;7.13;6.43;;;30.10;99.90;;;;;;5058279;28;20282;-65
2021/09/08 12:35:38;;;;;;;6.50;6.00;;;30.20;99.90;;;;;;5053963;28;20188;-66
2021/09/08 12:38:29;;;;;;;8.73;6.43;;;30.30;99.90;;;;;;5057926;28;20188;-66
2021/09/08 12:41:09;;;;;;;7.38;6.68;;;30.10;99.90;;;;;;5054509;28;20204;-65
2021/09/08 12:43:41;;;;;;;8.30;6.55;;;29.80;99.90;;;;;;5055574;28;20225;-65
2021/09/08 12:46:09;;;;;;;10.73;5.95;;;29.80;99.90;;;;;;5055491;28;20189;-66
2021/09/08 12:48:39;;;;;;;8.35;6.55;;;29.80;99.90;;;;;;5059770;28;20243;-66